Time;durP1;ratioP1;P1;durP2;ratioP2;P2;SDS_P1;SDS_P2;PMS_P1;PMS_P2;Temp;Humidity;BMP_temperature;BMP_pressure;BME280_temperature;BME280_humidity;BME280_pressure;Samples;Min_cycle;Max_cycle;Signal;HPM_P1;HPM_P2
2023/04/08 00:00:01;;;;;;;16.70;10.07;;;;;;;5.84;100.00;100986.75;4991442;28;20037;-73
2023/04/08 00:02:26;;;;;;;15.93;10.27;;;;;;;5.84;100.00;100981.50;4991402;28;20050;-74
2023/04/08 00:04:51;;;;;;;21.55;11.88;;;;;;;5.74;100.00;100971.69;4991428;28;20034;-73
2023/04/08 00:07:17;;;;;;;20.00;10.00;;;;;;;5.79;100.00;100976.19;4991638;28;20038;-74
2023/04/08 00:09:42;;;;;;;16.88;10.75;;;;;;;5.84;100.00;100982.41;4991300;28;20045;-73
2023/04/08 00:12:07;;;;;;;22.25;11.48;;;;;;;5.78;100.00;100968.28;4991660;28;20045;-74
2023/04/08 00:14:33;;;;;;;18.55;10.88;;;;;;;5.87;100.00;100978.97;4991527;28;20035;-73
2023/04/08 00:16:59;;;;;;;18.30;10.75;;;;;;;5.78;100.00;100979.66;4990455;28;20038;-73
2023/04/08 00:19:24;;;;;;;21.33;11.13;;;;;;;5.80;100.00;100982.31;4991095;28;20038;-73
2023/04/08 00:21:50;;;;;;;18.38;10.82;;;;;;;5.82;100.00;100978.00;4991508;28;20046;-73
2023/04/08 00:24:16;;;;;;;19.80;11.27;;;;;;;5.76;100.00;100975.22;4991317;28;20408;-74
2023/04/08 00:26:41;;;;;;;20.40;10.75;;;;;;;5.83;100.00;100978.00;4991519;28;20084;-73
2023/04/08 00:29:06;;;;;;;22.25;11.45;;;;;;;5.83;100.00;100974.50;4981401;28;20496;-73
2023/04/08 00:31:32;;;;;;;17.25;10.00;;;;;;;5.81;100.00;100982.31;4991225;28;20034;-73
2023/04/08 00:33:57;;;;;;;19.65;11.30;;;;;;;5.74;100.00;100983.06;4994911;28;20034;-73
2023/04/08 00:36:22;;;;;;;20.23;10.00;;;;;;;5.77;100.00;100982.25;4994865;28;20038;-73
2023/04/08 00:38:50;;;;;;;19.73;11.07;;;;;;;5.79;100.00;100976.19;4993467;28;20038;-73
2023/04/08 00:41:16;;;;;;;18.58;11.25;;;;;;;5.80;100.00;100977.94;4983545;28;20049;-73
2023/04/08 00:43:41;;;;;;;23.20;11.45;;;;;;;5.67;100.00;100975.94;4994633;28;20078;-73
2023/04/08 00:46:08;;;;;;;18.55;10.15;;;;;;;5.69;100.00;100975.13;4994894;28;20030;-73
2023/04/08 00:48:33;;;;;;;21.75;11.10;;;;;;;5.70;100.00;100966.41;4994296;28;20030;-73
2023/04/08 00:50:59;;;;;;;18.65;10.68;;;;;;;5.78;100.00;100974.41;4993752;28;20069;-73
2023/04/08 00:53:24;;;;;;;20.25;10.02;;;;;;;5.89;100.00;100978.16;4985852;28;20045;-73
2023/04/08 00:55:50;;;;;;;24.80;12.43;;;;;;;5.93;100.00;100980.00;4994678;28;20585;-74
2023/04/08 00:58:16;;;;;;;18.45;10.35;;;;;;;5.98;100.00;100972.25;4994605;28;20100;-74
2023/04/08 01:00:51;;;;;;;17.05;10.73;;;;;;;5.98;100.00;100968.75;4994217;28;20034;-74
2023/04/08 01:03:26;;;;;;;18.23;10.43;;;;;;;5.87;100.00;100978.97;4994193;28;20042;-73
2023/04/08 01:06:09;;;;;;;18.73;10.30;;;;;;;5.92;100.00;100977.31;4989857;28;20042;-73
2023/04/08 01:08:37;;;;;;;17.83;9.82;;;;;;;5.91;100.00;100972.94;4994401;28;20034;-73
2023/04/08 01:11:08;;;;;;;20.17;10.50;;;;;;;5.92;100.00;100978.22;4990558;28;20042;-74
2023/04/08 01:13:38;;;;;;;17.88;9.57;;;;;;;6.01;100.00;100982.78;4993227;28;20408;-74
2023/04/08 01:16:04;;;;;;;15.25;9.60;;;;;;;6.11;100.00;100976.84;4994038;28;20038;-74
2023/04/08 01:18:34;;;;;;;28.40;11.82;;;;;;;6.15;100.00;100977.78;4994232;28;20088;-73
2023/04/08 01:21:01;;;;;;;18.10;10.57;;;;;;;6.23;100.00;100980.56;4993889;28;20046;-73
2023/04/08 01:23:46;;;;;;;20.65;10.02;;;;;;;6.31;100.00;100981.56;4992650;28;20093;-73
2023/04/08 01:26:21;;;;;;;14.40;8.85;;;;;;;6.25;100.00;100976.22;4991882;28;20073;-72
2023/04/08 01:28:49;;;;;;;24.00;12.32;;;;;;;6.12;100.00;100978.59;4993890;28;20050;-73
2023/04/08 01:31:16;;;;;;;16.83;10.07;;;;;;;6.11;100.00;100973.38;4984567;28;20089;-72
2023/04/08 01:33:44;;;;;;;23.38;11.93;;;;;;;5.96;100.00;100979.19;4993925;28;20121;-73
2023/04/08 01:36:10;;;;;;;15.52;9.20;;;;;;;5.91;100.00;100983.41;4990287;28;20034;-73
2023/04/08 01:38:37;;;;;;;19.35;10.75;;;;;;;5.90;100.00;100971.16;4983928;28;20117;-73
2023/04/08 01:41:04;;;;;;;18.75;10.35;;;;;;;5.98;100.00;100966.13;4993577;28;20041;-74
2023/04/08 01:43:32;;;;;;;13.85;8.57;;;;;;;5.99;100.00;100963.50;4994025;28;20034;-73
2023/04/08 01:45:59;;;;;;;18.92;10.18;;;;;;;5.93;100.00;100980.00;4984132;28;20038;-72
2023/04/08 01:48:27;;;;;;;15.95;9.55;;;;;;;5.93;100.00;100986.94;4993708;28;20053;-73
2023/04/08 01:50:54;;;;;;;15.23;9.68;;;;;;;5.92;100.00;100977.31;4993362;28;20038;-73
2023/04/08 01:53:20;;;;;;;18.80;10.82;;;;;;;5.80;100.00;100977.06;4984467;28;20687;-73
2023/04/08 01:55:48;;;;;;;17.25;10.20;;;;;;;5.79;100.00;100981.44;4993460;28;20030;-73
2023/04/08 01:58:20;;;;;;;17.95;9.00;;;;;;;5.76;100.00;100972.63;4984455;28;20057;-73
2023/04/08 02:00:46;;;;;;;15.35;9.52;;;;;;;5.77;100.00;100974.41;4988254;28;20030;-73
2023/04/08 02:03:15;;;;;;;14.30;9.05;;;;;;;5.76;100.00;100975.22;4993188;28;20034;-73
2023/04/08 02:05:41;;;;;;;16.02;9.27;;;;;;;5.65;100.00;100978.50;4991840;28;20041;-74
2023/04/08 02:08:08;;;;;;;16.10;9.15;;;;;;;5.66;100.00;100975.06;4980952;28;20045;-74
2023/04/08 02:10:34;;;;;;;16.30;9.00;;;;;;;5.74;100.00;100975.22;4982881;28;20605;-73
2023/04/08 02:13:01;;;;;;;16.98;9.60;;;;;;;5.75;100.00;100978.72;4995122;28;20133;-73
2023/04/08 02:15:33;;;;;;;16.05;9.30;;;;;;;5.75;100.00;100982.22;4983743;28;20039;-73
2023/04/08 02:18:06;;;;;;;20.00;9.57;;;;;;;5.79;100.00;100986.69;4991875;28;20488;-73
2023/04/08 02:20:43;;;;;;;10.27;6.85;;;;;;;5.86;100.00;100983.31;4983661;28;20176;-73
2023/04/08 02:23:16;;;;;;;15.32;8.55;;;;;;;5.88;100.00;100983.34;4990406;28;20078;-74
2023/04/08 02:25:44;;;;;;;11.68;7.32;;;;;;;5.85;100.00;100983.28;4984018;28;20038;-74
2023/04/08 02:28:11;;;;;;;14.50;8.02;;;;;;;5.89;100.00;100982.47;4992944;28;20428;-74
2023/04/08 02:30:41;;;;;;;12.98;8.23;;;;;;;5.88;100.00;100988.59;4992422;28;20038;-73
2023/04/08 02:33:07;;;;;;;11.20;6.90;;;;;;;5.85;100.00;100986.78;4987764;28;20037;-74
2023/04/08 02:35:35;;;;;;;12.88;7.57;;;;;;;5.83;100.00;100990.22;4991842;28;20030;-74
2023/04/08 02:38:00;;;;;;;11.10;6.80;;;;;;;5.87;100.00;100992.06;4991402;28;20092;-73
2023/04/08 02:40:30;;;;;;;12.18;7.65;;;;;;;5.86;100.00;100987.66;4983346;28;20544;-73
2023/04/08 02:42:56;;;;;;;10.65;6.25;;;;;;;5.88;100.00;100988.59;4984929;28;20042;-73
2023/04/08 02:45:30;;;;;;;10.68;6.75;;;;;;;5.90;100.00;100989.50;4992577;28;20045;-74
2023/04/08 02:47:57;;;;;;;10.37;6.33;;;;;;;5.96;100.00;100994.03;4992634;28;20067;-74
2023/04/08 02:50:22;;;;;;;15.10;8.40;;;;;;;5.91;100.00;100991.25;4993190;28;20293;-74
2023/04/08 02:52:48;;;;;;;11.38;7.20;;;;;;;5.90;100.00;100985.16;4982697;28;20034;-74
2023/04/08 02:55:13;;;;;;;11.25;6.95;;;;;;;5.90;100.00;100984.28;4982639;28;20027;-73
2023/04/08 02:57:41;;;;;;;12.00;7.22;;;;;;;5.93;100.00;100989.56;4992165;28;20042;-74
2023/04/08 03:00:07;;;;;;;10.90;6.70;;;;;;;5.84;100.00;100986.75;4992004;28;20042;-73
2023/04/08 03:02:32;;;;;;;11.20;7.00;;;;;;;5.87;100.00;100995.56;4988240;28;20038;-74
2023/04/08 03:04:58;;;;;;;10.13;6.50;;;;;;;5.83;100.00;101000.72;4992381;28;20084;-73
2023/04/08 03:07:23;;;;;;;14.32;8.60;;;;;;;5.80;100.00;101003.28;4992484;28;20611;-74
2023/04/08 03:09:49;;;;;;;11.98;7.05;;;;;;;5.83;100.00;101008.56;4991923;28;20077;-74
2023/04/08 03:12:14;;;;;;;12.27;6.65;;;;;;;5.80;100.00;101004.16;4992040;28;20477;-74
2023/04/08 03:14:39;;;;;;;12.55;6.72;;;;;;;5.82;100.00;101004.19;4992121;28;20041;-74
2023/04/08 03:17:05;;;;;;;12.18;7.13;;;;;;;5.79;100.00;100996.25;4992170;28;20092;-74
2023/04/08 03:19:30;;;;;;;11.15;7.40;;;;;;;5.75;100.00;101004.91;4991738;28;20116;-74
2023/04/08 03:21:55;;;;;;;11.85;6.90;;;;;;;5.69;100.00;101006.53;4991029;28;20034;-73
2023/04/08 03:24:21;;;;;;;14.38;8.50;;;;;;;5.78;100.00;101007.59;4991896;28;20089;-73
2023/04/08 03:26:46;;;;;;;14.07;7.63;;;;;;;5.78;100.00;101012.81;4991778;28;20053;-73
2023/04/08 03:29:11;;;;;;;13.18;7.47;;;;;;;5.79;100.00;101004.09;4991748;28;20129;-74
2023/04/08 03:31:37;;;;;;;14.60;8.32;;;;;;;5.80;100.00;101003.28;4991906;28;20050;-74
2023/04/08 03:34:02;;;;;;;16.08;8.23;;;;;;;5.84;100.00;101005.09;4990712;28;20104;-74
2023/04/08 03:36:28;;;;;;;13.75;7.20;;;;;;;5.81;100.00;101005.91;4991879;28;20030;-73
2023/04/08 03:38:53;;;;;;;13.25;7.70;;;;;;;5.79;100.00;101002.41;4991590;28;20056;-74
2023/04/08 03:41:18;;;;;;;16.02;9.43;;;;;;;5.74;100.00;101004.03;4991893;28;20061;-73
2023/04/08 03:43:44;;;;;;;17.10;9.35;;;;;;;5.70;100.00;100991.72;4990106;28;20035;-74
2023/04/08 03:46:09;;;;;;;15.90;9.05;;;;;;;5.68;100.00;100994.28;4982924;28;20038;-74
2023/04/08 03:48:35;;;;;;;19.88;11.25;;;;;;;5.64;100.00;101002.94;4991796;28;20033;-73
2023/04/08 03:51:00;;;;;;;14.68;8.18;;;;;;;5.70;100.00;101007.41;4991174;28;20055;-74
2023/04/08 03:53:28;;;;;;;18.77;10.52;;;;;;;5.67;100.00;101008.25;4991668;28;20089;-73
2023/04/08 03:55:53;;;;;;;15.98;9.13;;;;;;;5.69;100.00;101006.53;4988763;28;20105;-74
2023/04/08 03:58:19;;;;;;;18.02;10.45;;;;;;;5.71;100.00;101001.31;4991391;28;20042;-73
2023/04/08 04:00:45;;;;;;;22.83;11.10;;;;;;;5.71;100.00;101002.22;4982456;28;20038;-73
2023/04/08 04:03:11;;;;;;;18.63;9.48;;;;;;;5.78;100.00;100999.72;4991356;28;20628;-73
2023/04/08 04:05:38;;;;;;;24.98;10.85;;;;;;;5.82;100.00;101014.66;4991567;28;20167;-73
2023/04/08 04:08:03;;;;;;;20.13;10.60;;;;;;;5.94;100.00;101017.56;4994253;28;20084;-73
2023/04/08 04:10:29;;;;;;;18.52;11.60;;;;;;;6.11;100.00;101026.66;4995171;28;20038;-73
2023/04/08 04:12:54;;;;;;;20.50;11.48;;;;;;;6.07;100.00;101019.56;4995405;28;20109;-75
2023/04/08 04:15:19;;;;;;;28.95;12.00;;;;;;;6.05;100.00;101029.16;4995357;28;20468;-74
2023/04/08 04:17:47;;;;;;;29.73;12.50;;;;;;;5.95;100.00;101027.19;4995021;28;20070;-74
2023/04/08 04:20:12;;;;;;;26.05;11.95;;;;;;;6.01;100.00;101029.06;4994984;28;20466;-73
2023/04/08 04:22:38;;;;;;;25.42;11.40;;;;;;;5.94;100.00;101022.78;4995180;28;20070;-73
2023/04/08 04:25:03;;;;;;;28.85;13.13;;;;;;;5.86;100.00;101026.97;4993661;28;20081;-73
2023/04/08 04:27:28;;;;;;;28.73;13.50;;;;;;;5.81;100.00;101031.22;4995142;28;20058;-73
2023/04/08 04:29:54;;;;;;;25.88;12.50;;;;;;;5.79;100.00;101030.28;4994280;28;20484;-74
2023/04/08 04:32:19;;;;;;;36.50;13.95;;;;;;;5.81;100.00;101025.97;4993051;28;20049;-73
2023/04/08 04:34:45;;;;;;;36.53;15.10;;;;;;;5.80;100.00;101026.84;4994436;28;20019;-73
2023/04/08 04:37:10;;;;;;;37.60;15.18;;;;;;;5.83;100.00;101035.63;4991026;28;20085;-73
2023/04/08 04:39:36;;;;;;;27.73;14.05;;;;;;;5.82;100.00;101033.88;4994562;28;20038;-73
2023/04/08 04:42:02;;;;;;;33.17;14.35;;;;;;;5.82;100.00;101035.63;4994932;28;20045;-74
2023/04/08 04:44:27;;;;;;;37.10;15.98;;;;;;;5.85;100.00;101038.31;4989561;28;20125;-73
2023/04/08 04:46:52;;;;;;;37.50;17.58;;;;;;;5.91;100.00;101048.91;4994290;28;20117;-74
2023/04/08 04:49:18;;;;;;;27.58;15.80;;;;;;;5.97;100.00;101054.28;4993278;28;20046;-73
2023/04/08 04:51:43;;;;;;;35.03;16.48;;;;;;;6.11;100.00;101051.97;4993701;28;20030;-74
2023/04/08 04:54:09;;;;;;;35.22;18.48;;;;;;;5.99;100.00;101056.97;4993642;28;20521;-73
2023/04/08 04:56:34;;;;;;;32.22;16.13;;;;;;;6.05;100.00;101055.38;4993023;28;20058;-74
2023/04/08 04:58:59;;;;;;;27.92;15.57;;;;;;;6.18;100.00;101058.22;4993213;28;20041;-74
2023/04/08 05:01:25;;;;;;;26.63;15.20;;;;;;;6.34;100.00;101065.53;4993707;28;20045;-73
2023/04/08 05:03:50;;;;;;;28.13;15.52;;;;;;;6.39;100.00;101063.00;4983847;28;20042;-76
2023/04/08 05:06:16;;;;;;;28.90;16.02;;;;;;;6.50;100.00;101061.47;4993789;28;20459;-76
2023/04/08 05:08:41;;;;;;;29.13;15.70;;;;;;;6.53;100.00;101054.53;4993574;28;20182;-76
2023/04/08 05:11:10;;;;;;;29.05;16.58;;;;;;;6.64;100.00;101056.47;4991408;28;20088;-76
2023/04/08 05:13:35;;;;;;;33.63;17.58;;;;;;;6.69;100.00;101063.56;4992802;28;20030;-76
2023/04/08 05:16:00;;;;;;;29.77;16.58;;;;;;;6.59;100.00;101059.91;4994081;28;20507;-76
2023/04/08 05:18:26;;;;;;;30.58;17.98;;;;;;;6.62;100.00;101066.94;4992848;28;20072;-76
2023/04/08 05:20:51;;;;;;;29.45;16.92;;;;;;;6.70;100.00;101070.56;4993778;28;20405;-76
2023/04/08 05:23:17;;;;;;;30.85;17.50;;;;;;;6.72;100.00;101068.00;4984858;28;20046;-76
2023/04/08 05:25:42;;;;;;;30.70;17.58;;;;;;;6.82;100.00;101069.06;4997114;28;20034;-76
2023/04/08 05:28:07;;;;;;;33.92;19.27;;;;;;;6.92;100.00;101071.88;4993677;28;20484;-76
2023/04/08 05:30:33;;;;;;;33.55;19.90;;;;;;;6.91;100.00;101069.19;4992847;28;20085;-76
2023/04/08 05:32:58;;;;;;;35.47;19.88;;;;;;;6.88;100.00;101080.53;4988631;28;20530;-75
2023/04/08 05:35:23;;;;;;;29.85;16.98;;;;;;;6.89;100.00;101078.78;4992501;28;20034;-77
2023/04/08 05:37:49;;;;;;;34.40;19.02;;;;;;;6.90;100.00;101083.19;4991209;28;20128;-76
2023/04/08 05:40:14;;;;;;;29.80;18.23;;;;;;;6.84;100.00;101081.34;4992854;28;20177;-74
2023/04/08 05:42:41;;;;;;;34.50;19.65;;;;;;;6.98;100.00;101082.44;4993509;28;20034;-74
2023/04/08 05:45:07;;;;;;;35.63;21.40;;;;;;;7.05;100.00;101095.66;4993469;28;20512;-73
2023/04/08 05:47:32;;;;;;;42.63;21.98;;;;;;;6.96;100.00;101089.41;4994466;28;20089;-73
2023/04/08 05:49:58;;;;;;;34.50;20.27;;;;;;;6.99;100.00;101092.09;5001111;28;20065;-74
2023/04/08 05:52:23;;;;;;;34.38;20.50;;;;;;;7.05;100.00;101095.66;5002119;28;20034;-74
2023/04/08 05:54:48;;;;;;;35.58;20.98;;;;;;;7.12;100.00;101095.81;4997748;28;20389;-74
2023/04/08 05:57:15;;;;;;;34.83;20.27;;;;;;;7.20;100.00;101098.56;4996896;28;20057;-74
2023/04/08 05:59:41;;;;;;;32.95;20.55;;;;;;;7.30;100.00;101097.84;4996216;28;20041;-73
2023/04/08 06:02:06;;;;;;;32.05;19.38;;;;;;;7.38;100.00;101093.59;5003208;28;20030;-74
2023/04/08 06:04:31;;;;;;;34.30;20.67;;;;;;;7.35;100.00;101097.94;5002724;28;20030;-74
2023/04/08 06:06:58;;;;;;;29.88;19.08;;;;;;;7.47;100.00;101101.66;5000682;28;20505;-74
2023/04/08 06:09:24;;;;;;;34.25;21.13;;;;;;;7.55;100.00;101108.78;4985077;28;20400;-74
2023/04/08 06:11:50;;;;;;;31.10;19.25;;;;;;;7.53;100.00;101108.72;4993126;28;20041;-73
2023/04/08 06:14:15;;;;;;;32.95;19.50;;;;;;;7.58;100.00;101114.06;4992986;28;20034;-73
2023/04/08 06:16:41;;;;;;;31.98;20.08;;;;;;;7.71;100.00;101110.75;4992974;28;20033;-73
2023/04/08 06:19:06;;;;;;;33.55;20.50;;;;;;;7.78;100.00;101112.63;4992740;28;20049;-74
2023/04/08 06:21:31;;;;;;;32.55;20.33;;;;;;;7.67;100.00;101119.44;4992990;28;20153;-74
2023/04/08 06:23:57;;;;;;;31.67;20.55;;;;;;;7.77;100.00;101116.09;4991729;28;20120;-74
2023/04/08 06:26:22;;;;;;;35.88;22.15;;;;;;;7.80;100.00;101113.50;4985416;28;20061;-74
2023/04/08 06:28:47;;;;;;;37.25;22.17;;;;;;;7.84;100.00;101123.22;4987641;28;20042;-75
2023/04/08 06:31:13;;;;;;;33.13;20.75;;;;;;;8.03;100.00;101126.97;4992119;28;20045;-74
2023/04/08 06:33:38;;;;;;;31.00;19.48;;;;;;;8.10;100.00;101130.59;4992153;28;20038;-74
2023/04/08 06:36:04;;;;;;;30.75;19.67;;;;;;;8.22;100.00;101135.09;4991478;28;20174;-73
2023/04/08 06:38:33;;;;;;;30.90;19.98;;;;;;;8.26;100.00;101140.44;4992535;28;20030;-75
2023/04/08 06:41:05;;;;;;;33.92;20.75;;;;;;;8.30;100.00;101139.59;4991051;28;20551;-74
2023/04/08 06:43:32;;;;;;;33.42;21.58;;;;;;;8.30;100.00;101142.22;4992414;28;20041;-74
2023/04/08 06:45:57;;;;;;;28.77;18.90;;;;;;;8.31;100.00;101148.41;4992624;28;20044;-74
2023/04/08 06:48:27;;;;;;;32.40;19.73;;;;;;;8.29;100.00;101152.75;4992534;28;20034;-75
2023/04/08 06:50:56;;;;;;;31.65;19.48;;;;;;;8.21;100.00;101157.91;4992154;28;20031;-74
2023/04/08 06:53:23;;;;;;;30.75;19.92;;;;;;;8.26;100.00;101156.22;4988826;28;20027;-74
2023/04/08 06:55:48;;;;;;;31.90;20.70;;;;;;;8.41;100.00;101167.81;4993824;28;20030;-74
2023/04/08 06:58:13;;;;;;;32.47;20.25;;;;;;;8.52;100.00;101166.22;4992175;28;20045;-73
2023/04/08 07:00:41;;;;;;;29.25;20.10;;;;;;;8.54;100.00;101169.75;4992037;28;20385;-74
2023/04/08 07:03:06;;;;;;;30.52;20.23;;;;;;;8.68;100.00;101175.19;4992136;28;20073;-74
2023/04/08 07:05:31;;;;;;;33.97;22.15;;;;;;;8.71;100.00;101175.22;4992168;28;20061;-74
2023/04/08 07:07:56;;;;;;;29.88;19.80;;;;;;;8.81;100.00;101173.59;4992156;28;20046;-74
2023/04/08 07:10:22;;;;;;;28.85;19.85;;;;;;;8.85;100.00;101172.75;4991865;28;20038;-74
2023/04/08 07:12:47;;;;;;;32.17;21.95;;;;;;;8.97;100.00;101172.88;4982334;28;20093;-74
2023/04/08 07:15:12;;;;;;;30.80;19.92;;;;;;;9.05;100.00;101173.84;4992188;28;20026;-74
2023/04/08 07:17:38;;;;;;;31.98;19.88;;;;;;;9.10;100.00;101180.03;4992033;28;20038;-74
2023/04/08 07:20:05;;;;;;;29.60;20.60;;;;;;;9.17;100.00;101179.25;4991471;28;20481;-74
2023/04/08 07:22:30;;;;;;;29.92;19.77;;;;;;;9.27;100.00;101174.03;4991947;28;20077;-74
2023/04/08 07:24:56;;;;;;;30.58;19.80;;;;;;;9.35;100.00;101180.25;4991955;28;20070;-74
2023/04/08 07:27:21;;;;;;;32.63;21.63;;;;;;;9.45;100.00;101182.13;4991784;28;20093;-74
2023/04/08 07:29:51;;;;;;;31.77;22.05;;;;;;;9.47;100.00;101180.38;4991582;28;20042;-74
2023/04/08 07:32:17;;;;;;;29.55;20.10;;;;;;;9.54;100.00;101191.88;4991827;28;20087;-74
2023/04/08 07:34:42;;;;;;;29.80;20.52;;;;;;;9.62;100.00;101190.19;4990143;28;20058;-74
2023/04/08 07:37:07;;;;;;;27.20;18.58;;;;;;;9.75;100.00;101183.25;4991941;28;20400;-74
2023/04/08 07:39:33;;;;;;;29.90;20.45;;;;;;;9.82;100.00;101182.41;4991523;28;20378;-74
2023/04/08 07:41:58;;;;;;;34.22;20.75;;;;;;;9.88;100.00;101185.13;4994112;28;20522;-74
2023/04/08 07:44:23;;;;;;;28.13;19.00;;;;;;;9.94;100.00;101182.50;4998253;28;20042;-74
2023/04/08 07:46:50;;;;;;;30.30;21.58;;;;;;;10.06;100.00;101187.88;4998202;28;20057;-74
2023/04/08 07:49:16;;;;;;;27.98;19.17;;;;;;;10.19;100.00;101195.84;4997618;28;20125;-74
2023/04/08 07:51:41;;;;;;;28.15;19.35;;;;;;;10.21;100.00;101200.25;4998164;28;20113;-74
2023/04/08 07:54:06;;;;;;;25.08;18.00;;;;;;;10.09;100.00;101198.44;4998156;28;20046;-74
2023/04/08 07:56:32;;;;;;;25.60;17.17;;;;;;;10.03;100.00;101205.41;4998045;28;20041;-74
2023/04/08 07:58:57;;;;;;;23.20;16.17;;;;;;;10.06;100.00;101198.44;4997819;28;20527;-74
2023/04/08 08:01:23;;;;;;;17.85;12.80;;;;;;;10.20;100.00;101205.53;4998196;28;20500;-74
2023/04/08 08:03:50;;;;;;;18.08;13.02;;;;;;;10.37;100.00;101210.94;4994074;28;20500;-75
2023/04/08 08:06:16;;;;;;;19.27;14.32;;;;;;;10.62;100.00;101206.69;4986412;28;20042;-74
2023/04/08 08:08:41;;;;;;;18.83;13.10;;;;;;;11.06;100.00;101213.88;4997927;28;20041;-74
2023/04/08 08:11:06;;;;;;;16.50;11.27;;;;;;;11.55;96.92;101211.31;4989149;28;20045;-74
2023/04/08 08:13:33;;;;;;;11.50;8.70;;;;;;;11.80;94.03;101218.38;4997831;28;20034;-74
2023/04/08 08:15:58;;;;;;;11.45;8.15;;;;;;;11.95;92.45;101221.94;4995910;28;20049;-74
2023/04/08 08:18:24;;;;;;;10.32;7.70;;;;;;;12.23;88.37;101220.97;4997986;28;20030;-74
2023/04/08 08:20:49;;;;;;;10.90;7.75;;;;;;;12.33;86.38;101220.97;4997601;28;20042;-74
2023/04/08 08:23:15;;;;;;;12.30;7.68;;;;;;;12.46;86.15;101220.06;4997861;28;20038;-75
2023/04/08 08:25:40;;;;;;;11.30;7.75;;;;;;;12.55;84.16;101222.69;4997840;28;20583;-74
2023/04/08 08:28:06;;;;;;;11.02;8.23;;;;;;;12.52;82.55;101225.31;4997888;28;20136;-74
2023/04/08 08:30:31;;;;;;;9.93;6.88;;;;;;;12.82;82.40;101219.06;4988168;28;20512;-75
2023/04/08 08:32:57;;;;;;;10.02;7.32;;;;;;;12.82;80.48;101219.06;4997826;28;20053;-75
2023/04/08 08:35:23;;;;;;;10.88;7.35;;;;;;;13.01;80.56;101217.19;4997000;28;20484;-75
2023/04/08 08:37:49;;;;;;;9.48;6.68;;;;;;;13.12;79.69;101222.44;4988847;28;20048;-74
2023/04/08 08:40:15;;;;;;;9.75;7.13;;;;;;;13.22;79.12;101225.91;4997383;28;20039;-74
2023/04/08 08:42:41;;;;;;;8.57;6.30;;;;;;;13.18;76.58;101229.47;4997699;28;20061;-75
2023/04/08 08:45:07;;;;;;;10.77;7.60;;;;;;;13.22;76.58;101232.09;4997705;28;20132;-75
2023/04/08 08:47:32;;;;;;;11.20;7.30;;;;;;;13.28;77.91;101233.84;4997809;28;20074;-72
2023/04/08 08:49:58;;;;;;;8.82;6.40;;;;;;;13.47;78.38;101235.50;4997386;28;20038;-72
2023/04/08 08:52:23;;;;;;;8.48;6.40;;;;;;;13.66;77.78;101235.38;4997452;28;20045;-72
2023/04/08 08:54:57;;;;;;;10.15;6.70;;;;;;;13.47;73.76;101240.81;4994461;28;20037;-72
2023/04/08 08:57:22;;;;;;;8.70;6.03;;;;;;;13.42;76.59;101242.63;4994608;28;20034;-72
2023/04/08 08:59:48;;;;;;;9.43;6.68;;;;;;;13.23;74.11;101243.56;4984752;28;20049;-72
2023/04/08 09:02:30;;;;;;;9.77;6.93;;;;;;;12.87;73.76;101242.88;4994428;28;20034;-72
2023/04/08 09:05:00;;;;;;;9.82;6.20;;;;;;;12.77;75.10;101251.75;4990858;28;20601;-72
2023/04/08 09:07:27;;;;;;;9.50;6.80;;;;;;;12.80;75.44;101247.31;4992689;28;20046;-72
2023/04/08 09:09:53;;;;;;;9.15;6.60;;;;;;;12.71;76.60;101250.88;4992841;28;20076;-72
2023/04/08 09:12:19;;;;;;;10.38;6.47;;;;;;;12.66;77.68;101257.97;4992431;28;20403;-73
2023/04/08 09:14:45;;;;;;;10.35;7.60;;;;;;;12.75;76.86;101253.50;4994206;28;20113;-72
2023/04/08 09:17:10;;;;;;;11.88;8.40;;;;;;;12.62;77.31;101264.13;4994186;28;20603;-72
2023/04/08 09:19:36;;;;;;;11.02;7.30;;;;;;;12.54;77.58;101262.41;4984104;28;20516;-73
2023/04/08 09:22:09;;;;;;;9.88;7.28;;;;;;;12.71;77.61;101263.25;4989358;28;20389;-73
2023/04/08 09:24:38;;;;;;;11.93;8.00;;;;;;;12.72;76.88;101259.69;4991036;28;20464;-73
2023/04/08 09:27:04;;;;;;;12.95;8.95;;;;;;;12.99;76.39;101271.94;4994226;28;20524;-72
2023/04/08 09:29:30;;;;;;;11.05;7.75;;;;;;;13.12;75.73;101265.69;4993468;28;20034;-73
2023/04/08 09:31:57;;;;;;;11.27;7.63;;;;;;;13.08;74.92;101273.69;4993991;28;20097;-73
2023/04/08 09:34:26;;;;;;;11.45;8.25;;;;;;;12.95;75.12;101264.91;4993628;28;20030;-73
2023/04/08 09:36:52;;;;;;;10.35;7.55;;;;;;;12.83;72.24;101267.59;4987589;28;20076;-73
2023/04/08 09:39:18;;;;;;;11.68;8.55;;;;;;;12.83;74.32;101272.91;4993511;28;20104;-73
2023/04/08 09:41:46;;;;;;;13.45;9.00;;;;;;;13.02;74.30;101269.31;4993682;28;20559;-72
2023/04/08 09:44:13;;;;;;;11.45;7.78;;;;;;;13.15;74.55;101275.41;4993596;28;20030;-73
2023/04/08 09:46:43;;;;;;;13.80;9.00;;;;;;;13.23;74.83;101280.66;4989838;28;20042;-74
2023/04/08 09:49:10;;;;;;;12.75;9.15;;;;;;;13.18;74.44;101285.13;4992722;28;20105;-73
2023/04/08 09:51:42;;;;;;;14.60;9.82;;;;;;;12.87;75.70;101275.53;4993591;28;20042;-72
2023/04/08 09:54:17;;;;;;;15.15;10.35;;;;;;;12.65;76.06;101288.00;4992174;28;20990;-73
2023/04/08 09:56:48;;;;;;;15.63;11.40;;;;;;;12.54;77.21;101281.81;4991589;28;20108;-73
2023/04/08 09:59:16;;;;;;;13.18;10.43;;;;;;;12.59;77.17;101289.75;4987527;28;20121;-72
2023/04/08 10:01:53;;;;;;;13.98;10.80;;;;;;;12.64;77.19;101283.56;4989555;28;20448;-73
2023/04/08 10:04:22;;;;;;;15.15;10.90;;;;;;;12.88;76.84;101287.91;4973624;28;20092;-73
2023/04/08 10:07:05;;;;;;;12.35;9.88;;;;;;;12.89;76.45;101294.06;4992958;28;20149;-72
2023/04/08 10:09:32;;;;;;;16.23;10.68;;;;;;;12.54;77.24;101284.47;4985576;28;20452;-72
2023/04/08 10:11:58;;;;;;;15.50;10.25;;;;;;;12.49;77.34;101286.22;4983265;28;20041;-73
2023/04/08 10:14:27;;;;;;;13.88;9.80;;;;;;;12.70;77.77;101283.53;4992964;28;20034;-74
2023/04/08 10:17:30;;;;;;;14.45;10.40;;;;;;;13.18;76.26;101279.81;4976545;28;20041;-74
2023/04/08 10:19:57;;;;;;;11.90;8.70;;;;;;;13.38;73.96;101289.47;4992423;28;20057;-74
2023/04/08 10:22:28;;;;;;;12.07;9.07;;;;;;;13.42;72.95;101289.47;4989399;28;20045;-74
2023/04/08 10:25:18;;;;;;;13.38;9.43;;;;;;;13.49;72.55;101286.78;4992823;28;20125;-73
2023/04/08 10:27:44;;;;;;;12.32;8.45;;;;;;;13.56;72.62;101290.25;4988209;28;20045;-74
2023/04/08 10:30:24;;;;;;;10.15;7.32;;;;;;;13.14;67.74;101289.56;4989672;28;20030;-74
2023/04/08 10:32:50;;;;;;;18.02;13.25;;;;;;;12.70;70.59;101294.13;4990811;28;20042;-74
2023/04/08 10:35:16;;;;;;;21.05;15.90;;;;;;;12.69;71.70;101300.31;4991249;28;20392;-74
2023/04/08 10:37:42;;;;;;;22.17;15.45;;;;;;;12.48;75.44;101297.72;4991275;28;20712;-74
2023/04/08 10:40:18;;;;;;;20.88;16.50;;;;;;;12.42;77.11;101303.03;4990027;28;20042;-74
2023/04/08 10:42:43;;;;;;;16.75;13.43;;;;;;;12.13;79.91;101311.88;4990723;28;20041;-74
2023/04/08 10:45:09;;;;;;;16.50;12.63;;;;;;;12.18;79.47;101303.91;4991033;28;20030;-74
2023/04/08 10:47:34;;;;;;;15.85;12.63;;;;;;;12.20;79.20;101313.63;4991906;28;20403;-74
2023/04/08 10:50:01;;;;;;;14.52;11.30;;;;;;;12.53;78.02;101303.03;4990173;28;20034;-74
2023/04/08 10:52:26;;;;;;;14.57;11.63;;;;;;;12.71;76.61;101302.97;4983347;28;20048;-74
2023/04/08 10:54:52;;;;;;;14.30;11.25;;;;;;;12.95;76.50;101302.00;4992376;28;20105;-74
2023/04/08 10:57:24;;;;;;;13.82;11.32;;;;;;;13.28;74.36;101302.78;4991172;28;20101;-74
2023/04/08 10:59:50;;;;;;;15.77;11.57;;;;;;;13.28;73.14;101308.06;4982373;28;20038;-74
2023/04/08 11:02:15;;;;;;;13.55;10.63;;;;;;;13.49;72.49;101304.44;4992237;28;20065;-74
2023/04/08 11:04:42;;;;;;;12.48;9.90;;;;;;;13.69;71.62;101301.66;4992108;28;20034;-74
2023/04/08 11:07:08;;;;;;;14.38;11.00;;;;;;;13.76;70.87;101306.03;5012254;23;20053;-72
2023/04/08 11:09:33;;;;;;;13.85;10.73;;;;;;;13.55;70.45;101307.06;5000395;28;20128;-72